sensor_id;sensor_type;location;lat;lon;timestamp;pressure;altitude;pressure_sealevel;temperature;humidity
58757;BME280;44527;47.460;19.016;2022-12-18T00:02:48;101666.34;;;-1.39;80.15
58757;BME280;44527;47.460;19.016;2022-12-18T00:05:51;101673.28;;;-1.31;81.15
58757;BME280;44527;47.460;19.016;2022-12-18T00:08:55;101680.13;;;-1.33;81.15
58757;BME280;44527;47.460;19.016;2022-12-18T00:11:58;101685.22;;;-1.38;81.13
58757;BME280;44527;47.460;19.016;2022-12-18T00:15:00;101690.31;;;-1.53;81.80
58757;BME280;44527;47.460;19.016;2022-12-18T00:18:03;101704.00;;;-1.64;83.21
58757;BME280;44527;47.460;19.016;2022-12-18T00:21:06;101704.03;;;-1.62;84.03
58757;BME280;44527;47.460;19.016;2022-12-18T00:24:10;101706.62;;;-1.59;82.88
58757;BME280;44527;47.460;19.016;2022-12-18T00:27:12;101716.91;;;-1.59;81.94
58757;BME280;44527;47.460;19.016;2022-12-18T00:30:15;101721.16;;;-1.63;82.05
58757;BME280;44527;47.460;19.016;2022-12-18T00:33:17;101722.03;;;-1.62;81.53
58757;BME280;44527;47.460;19.016;2022-12-18T00:36:31;101732.34;;;-1.62;81.76
58757;BME280;44527;47.460;19.016;2022-12-18T00:39:34;101737.63;;;-1.41;80.90
58757;BME280;44527;47.460;19.016;2022-12-18T00:42:37;101731.56;;;-1.46;81.72
58757;BME280;44527;47.460;19.016;2022-12-18T00:45:57;101737.47;;;-1.60;82.39
58757;BME280;44527;47.460;19.016;2022-12-18T00:49:00;101745.09;;;-1.77;82.80
58757;BME280;44527;47.460;19.016;2022-12-18T00:52:02;101742.53;;;-1.76;82.80
58757;BME280;44527;47.460;19.016;2022-12-18T00:55:05;101748.44;;;-1.89;83.73
58757;BME280;44527;47.460;19.016;2022-12-18T00:58:08;101754.41;;;-1.90;84.35
58757;BME280;44527;47.460;19.016;2022-12-18T01:01:11;101755.37;;;-1.79;83.86
58757;BME280;44527;47.460;19.016;2022-12-18T01:04:14;101766.56;;;-1.75;82.70
58757;BME280;44527;47.460;19.016;2022-12-18T01:07:19;101769.94;;;-1.81;83.15
58757;BME280;44527;47.460;19.016;2022-12-18T01:10:22;101769.06;;;-1.86;82.41
58757;BME280;44527;47.460;19.016;2022-12-18T01:13:25;101782.00;;;-1.77;81.70
58757;BME280;44527;47.460;19.016;2022-12-18T01:16:27;101778.53;;;-1.79;81.43
58757;BME280;44527;47.460;19.016;2022-12-18T01:19:31;101778.50;;;-1.82;82.00
58757;BME280;44527;47.460;19.016;2022-12-18T01:22:33;101783.59;;;-1.91;81.56
58757;BME280;44527;47.460;19.016;2022-12-18T01:25:36;101788.59;;;-2.08;82.37
58757;BME280;44527;47.460;19.016;2022-12-18T01:28:39;101783.50;;;-2.00;82.05
58757;BME280;44527;47.460;19.016;2022-12-18T01:31:42;101788.66;;;-2.00;83.02
58757;BME280;44527;47.460;19.016;2022-12-18T01:34:44;101795.47;;;-2.05;83.12
58757;BME280;44527;47.460;19.016;2022-12-18T01:37:47;101800.66;;;-1.99;82.62
58757;BME280;44527;47.460;19.016;2022-12-18T01:40:49;101796.44;;;-1.94;82.71
58757;BME280;44527;47.460;19.016;2022-12-18T01:43:55;101794.59;;;-2.08;83.71
58757;BME280;44527;47.460;19.016;2022-12-18T01:46:59;101804.03;;;-2.06;83.09
58757;BME280;44527;47.460;19.016;2022-12-18T01:50:13;101807.47;;;-2.06;82.07
58757;BME280;44527;47.460;19.016;2022-12-18T01:53:19;101810.59;;;-2.36;83.66
58757;BME280;44527;47.460;19.016;2022-12-18T01:56:22;101814.13;;;-2.29;83.76
58757;BME280;44527;47.460;19.016;2022-12-18T01:59:25;101814.91;;;-2.34;84.03
58757;BME280;44527;47.460;19.016;2022-12-18T02:02:28;101818.78;;;-2.71;85.73
58757;BME280;44527;47.460;19.016;2022-12-18T02:05:49;101819.81;;;-2.57;85.84
58757;BME280;44527;47.460;19.016;2022-12-18T02:09:11;101825.22;;;-2.31;84.59
58757;BME280;44527;47.460;19.016;2022-12-18T02:12:19;101829.72;;;-2.10;84.07
58757;BME280;44527;47.460;19.016;2022-12-18T02:18:58;101839.25;;;-2.01;82.45
58757;BME280;44527;47.460;19.016;2022-12-18T02:28:31;101843.87;;;-2.50;83.94
58757;BME280;44527;47.460;19.016;2022-12-18T02:31:41;101841.78;;;-2.80;84.39
58757;BME280;44527;47.460;19.016;2022-12-18T02:34:45;101846.94;;;-2.80;84.40
58757;BME280;44527;47.460;19.016;2022-12-18T02:37:49;101852.94;;;-2.81;84.28
58757;BME280;44527;47.460;19.016;2022-12-18T02:40:53;101852.94;;;-2.81;84.11
58757;BME280;44527;47.460;19.016;2022-12-18T02:44:01;101863.13;;;-2.87;84.89
58757;BME280;44527;47.460;19.016;2022-12-18T02:47:05;101864.91;;;-2.80;85.83
58757;BME280;44527;47.460;19.016;2022-12-18T02:50:17;101867.50;;;-2.79;85.53
58757;BME280;44527;47.460;19.016;2022-12-18T02:53:55;101861.28;;;-2.96;86.65
58757;BME280;44527;47.460;19.016;2022-12-18T02:57:08;101870.00;;;-2.83;85.97
58757;BME280;44527;47.460;19.016;2022-12-18T03:00:19;101881.56;;;-3.14;87.25
58757;BME280;44527;47.460;19.016;2022-12-18T03:03:42;101882.34;;;-3.20;88.16
58757;BME280;44527;47.460;19.016;2022-12-18T03:06:54;101885.84;;;-3.13;88.36
58757;BME280;44527;47.460;19.016;2022-12-18T03:10:00;101891.00;;;-3.13;88.14
58757;BME280;44527;47.460;19.016;2022-12-18T03:13:06;101902.22;;;-3.08;88.14
58757;BME280;44527;47.460;19.016;2022-12-18T03:16:16;101898.50;;;-3.26;88.53
58757;BME280;44527;47.460;19.016;2022-12-18T03:19:22;101905.97;;;-3.42;89.99
58757;BME280;44527;47.460;19.016;2022-12-18T03:22:27;101910.25;;;-3.41;90.32
58757;BME280;44527;47.460;19.016;2022-12-18T03:25:32;101907.00;;;-3.30;89.46
58757;BME280;44527;47.460;19.016;2022-12-18T03:28:40;101907.97;;;-3.23;88.82
58757;BME280;44527;47.460;19.016;2022-12-18T03:31:51;101909.97;;;-3.05;88.28
58757;BME280;44527;47.460;19.016;2022-12-18T03:34:58;101918.47;;;-3.08;87.44
58757;BME280;44527;47.460;19.016;2022-12-18T03:38:04;101915.19;;;-2.99;87.17
58757;BME280;44527;47.460;19.016;2022-12-18T03:44:37;101941.03;;;-2.88;85.92
58757;BME280;44527;47.460;19.016;2022-12-18T03:51:12;101938.87;;;-3.17;87.73
58757;BME280;44527;47.460;19.016;2022-12-18T03:54:18;101944.31;;;-3.52;89.38
58757;BME280;44527;47.460;19.016;2022-12-18T03:57:26;101945.97;;;-3.54;89.32
58757;BME280;44527;47.460;19.016;2022-12-18T04:00:31;101939.50;;;-3.80;90.84
58757;BME280;44527;47.460;19.016;2022-12-18T04:03:36;101939.38;;;-3.38;89.53
58757;BME280;44527;47.460;19.016;2022-12-18T04:06:41;101942.37;;;-3.63;88.94
58757;BME280;44527;47.460;19.016;2022-12-18T04:09:48;101954.69;;;-3.45;88.08
58757;BME280;44527;47.460;19.016;2022-12-18T04:12:56;101959.22;;;-3.29;86.32
58757;BME280;44527;47.460;19.016;2022-12-18T04:15:59;101955.22;;;-3.63;87.69
58757;BME280;44527;47.460;19.016;2022-12-18T04:19:01;101959.16;;;-3.82;88.83
58757;BME280;44527;47.460;19.016;2022-12-18T04:22:05;101950.84;;;-3.69;88.49
58757;BME280;44527;47.460;19.016;2022-12-18T04:25:08;101954.34;;;-3.64;88.45
58757;BME280;44527;47.460;19.016;2022-12-18T04:28:11;101959.59;;;-3.56;88.05
58757;BME280;44527;47.460;19.016;2022-12-18T04:31:13;101965.16;;;-3.32;86.95
58757;BME280;44527;47.460;19.016;2022-12-18T04:34:16;101969.63;;;-3.21;86.95
58757;BME280;44527;47.460;19.016;2022-12-18T04:37:19;101965.50;;;-3.12;85.52
58757;BME280;44527;47.460;19.016;2022-12-18T04:40:23;101970.56;;;-3.16;85.42
58757;BME280;44527;47.460;19.016;2022-12-18T04:43:25;101978.69;;;-3.42;85.88
58757;BME280;44527;47.460;19.016;2022-12-18T04:46:28;101974.88;;;-3.64;87.15
58757;BME280;44527;47.460;19.016;2022-12-18T04:49:30;101991.56;;;-3.86;88.38
58757;BME280;44527;47.460;19.016;2022-12-18T04:52:33;101999.28;;;-3.39;87.29
58757;BME280;44527;47.460;19.016;2022-12-18T04:55:35;102002.56;;;-3.46;86.64
58757;BME280;44527;47.460;19.016;2022-12-18T04:58:39;102001.62;;;-3.51;86.97
58757;BME280;44527;47.460;19.016;2022-12-18T05:01:42;102005.91;;;-3.52;86.61
58757;BME280;44527;47.460;19.016;2022-12-18T05:04:45;102007.00;;;-3.39;86.51
58757;BME280;44527;47.460;19.016;2022-12-18T05:07:47;102005.63;;;-3.65;87.34
58757;BME280;44527;47.460;19.016;2022-12-18T05:10:58;102014.69;;;-3.84;88.67
58757;BME280;44527;47.460;19.016;2022-12-18T05:14:01;102018.41;;;-3.68;88.31
58757;BME280;44527;47.460;19.016;2022-12-18T05:17:03;102018.69;;;-3.55;86.72
58757;BME280;44527;47.460;19.016;2022-12-18T05:20:06;102020.84;;;-3.75;88.24
58757;BME280;44527;47.460;19.016;2022-12-18T05:23:08;102017.00;;;-3.97;88.81
58757;BME280;44527;47.460;19.016;2022-12-18T05:26:15;102027.00;;;-4.09;89.61
58757;BME280;44527;47.460;19.016;2022-12-18T05:29:17;102029.03;;;-3.93;89.88
58757;BME280;44527;47.460;19.016;2022-12-18T05:32:19;102034.34;;;-3.85;89.13
58757;BME280;44527;47.460;19.016;2022-12-18T05:35:22;102035.34;;;-3.77;87.86
58757;BME280;44527;47.460;19.016;2022-12-18T05:38:25;102039.19;;;-3.99;89.29
58757;BME280;44527;47.460;19.016;2022-12-18T05:41:28;102038.62;;;-3.84;89.03
58757;BME280;44527;47.460;19.016;2022-12-18T05:44:30;102043.63;;;-3.90;89.25
58757;BME280;44527;47.460;19.016;2022-12-18T05:47:33;102061.13;;;-4.13;90.09
58757;BME280;44527;47.460;19.016;2022-12-18T05:50:36;102048.50;;;-4.02;90.20
58757;BME280;44527;47.460;19.016;2022-12-18T05:53:39;102056.03;;;-3.69;88.57
58757;BME280;44527;47.460;19.016;2022-12-18T05:56:41;102062.03;;;-3.68;88.15
58757;BME280;44527;47.460;19.016;2022-12-18T05:59:50;102062.09;;;-3.67;87.50
58757;BME280;44527;47.460;19.016;2022-12-18T06:02:52;102061.78;;;-3.81;88.87
58757;BME280;44527;47.460;19.016;2022-12-18T06:05:54;102063.50;;;-3.81;88.02
58757;BME280;44527;47.460;19.016;2022-12-18T06:08:57;102077.78;;;-3.93;89.47
58757;BME280;44527;47.460;19.016;2022-12-18T06:12:02;102073.94;;;-3.72;88.24
58757;BME280;44527;47.460;19.016;2022-12-18T06:15:05;102072.16;;;-3.76;88.19
58757;BME280;44527;47.460;19.016;2022-12-18T06:18:07;102076.91;;;-3.95;88.16
58757;BME280;44527;47.460;19.016;2022-12-18T06:21:10;102079.16;;;-4.08;89.26
58757;BME280;44527;47.460;19.016;2022-12-18T06:24:12;102078.16;;;-4.15;89.78
58757;BME280;44527;47.460;19.016;2022-12-18T06:27:14;102083.34;;;-4.12;89.01
58757;BME280;44527;47.460;19.016;2022-12-18T06:30:17;102093.28;;;-3.88;88.46
58757;BME280;44527;47.460;19.016;2022-12-18T06:33:19;102103.81;;;-3.74;87.18
58757;BME280;44527;47.460;19.016;2022-12-18T06:36:22;102107.94;;;-3.82;87.26
58757;BME280;44527;47.460;19.016;2022-12-18T06:39:24;102109.88;;;-3.72;86.94
58757;BME280;44527;47.460;19.016;2022-12-18T06:42:28;102111.13;;;-3.94;87.71
58757;BME280;44527;47.460;19.016;2022-12-18T06:45:30;102130.78;;;-3.93;87.74
58757;BME280;44527;47.460;19.016;2022-12-18T06:48:33;102124.06;;;-3.88;87.29
58757;BME280;44527;47.460;19.016;2022-12-18T06:51:35;102120.41;;;-3.99;87.32
58757;BME280;44527;47.460;19.016;2022-12-18T06:54:37;102119.56;;;-3.98;88.34
58757;BME280;44527;47.460;19.016;2022-12-18T06:57:40;102125.72;;;-3.91;87.36
58757;BME280;44527;47.460;19.016;2022-12-18T07:00:42;102133.75;;;-3.76;86.06
58757;BME280;44527;47.460;19.016;2022-12-18T07:03:45;102148.87;;;-3.87;86.06
58757;BME280;44527;47.460;19.016;2022-12-18T07:06:47;102145.31;;;-3.94;87.37
58757;BME280;44527;47.460;19.016;2022-12-18T07:09:50;102152.37;;;-3.83;86.38
58757;BME280;44527;47.460;19.016;2022-12-18T07:12:53;102154.94;;;-3.83;86.91
58757;BME280;44527;47.460;19.016;2022-12-18T07:15:55;102159.91;;;-3.91;87.45
58757;BME280;44527;47.460;19.016;2022-12-18T07:18:58;102165.66;;;-4.01;88.20
58757;BME280;44527;47.460;19.016;2022-12-18T07:22:01;102165.41;;;-3.74;86.71
58757;BME280;44527;47.460;19.016;2022-12-18T07:25:04;102177.09;;;-3.48;85.27
58757;BME280;44527;47.460;19.016;2022-12-18T07:28:06;102180.47;;;-3.52;85.46
58757;BME280;44527;47.460;19.016;2022-12-18T07:31:17;102192.72;;;-3.38;85.00
58757;BME280;44527;47.460;19.016;2022-12-18T07:34:22;102200.41;;;-3.38;85.24
58757;BME280;44527;47.460;19.016;2022-12-18T07:37:24;102196.37;;;-3.27;85.06
58757;BME280;44527;47.460;19.016;2022-12-18T07:40:27;102200.38;;;-2.97;83.17
58757;BME280;44527;47.460;19.016;2022-12-18T07:43:29;102203.94;;;-3.33;85.08
58757;BME280;44527;47.460;19.016;2022-12-18T07:46:31;102209.00;;;-2.94;84.70
58757;BME280;44527;47.460;19.016;2022-12-18T07:49:34;102222.41;;;-2.63;82.78
58757;BME280;44527;47.460;19.016;2022-12-18T07:52:36;102219.38;;;-2.88;82.90
58757;BME280;44527;47.460;19.016;2022-12-18T07:55:38;102224.41;;;-2.95;84.27
58757;BME280;44527;47.460;19.016;2022-12-18T07:59:04;102226.22;;;-2.90;83.98
58757;BME280;44527;47.460;19.016;2022-12-18T08:02:06;102231.53;;;-2.81;84.60
58757;BME280;44527;47.460;19.016;2022-12-18T08:05:09;102244.13;;;-2.49;83.34
58757;BME280;44527;47.460;19.016;2022-12-18T08:08:11;102242.34;;;-2.51;83.14
58757;BME280;44527;47.460;19.016;2022-12-18T08:11:13;102249.63;;;-2.29;82.41
58757;BME280;44527;47.460;19.016;2022-12-18T08:14:16;102249.88;;;-2.14;82.08
58757;BME280;44527;47.460;19.016;2022-12-18T08:17:19;102260.87;;;-2.21;82.41
58757;BME280;44527;47.460;19.016;2022-12-18T08:20:21;102259.91;;;-2.29;83.22
58757;BME280;44527;47.460;19.016;2022-12-18T08:23:24;102255.12;;;-2.08;82.67
58757;BME280;44527;47.460;19.016;2022-12-18T08:26:30;102256.84;;;-1.50;81.43
58757;BME280;44527;47.460;19.016;2022-12-18T08:29:33;102258.00;;;-1.31;79.84
58757;BME280;44527;47.460;19.016;2022-12-18T08:32:35;102268.44;;;-1.21;80.03
58757;BME280;44527;47.460;19.016;2022-12-18T08:35:38;102269.81;;;-1.46;81.04
58757;BME280;44527;47.460;19.016;2022-12-18T08:38:47;102276.00;;;-1.34;80.85
58757;BME280;44527;47.460;19.016;2022-12-18T08:41:49;102280.59;;;-1.10;80.29
58757;BME280;44527;47.460;19.016;2022-12-18T08:45:11;102269.06;;;-0.68;77.74
58757;BME280;44527;47.460;19.016;2022-12-18T08:48:14;102270.03;;;-0.59;76.27
58757;BME280;44527;47.460;19.016;2022-12-18T08:51:23;102282.19;;;-0.49;76.07
58757;BME280;44527;47.460;19.016;2022-12-18T08:54:26;102280.66;;;-0.30;75.57
58757;BME280;44527;47.460;19.016;2022-12-18T08:57:28;102276.84;;;-0.65;78.10
58757;BME280;44527;47.460;19.016;2022-12-18T09:00:31;102278.84;;;-0.38;76.93
58757;BME280;44527;47.460;19.016;2022-12-18T09:03:33;102281.34;;;-0.48;77.38
58757;BME280;44527;47.460;19.016;2022-12-18T09:06:36;102284.94;;;-0.33;77.53
58757;BME280;44527;47.460;19.016;2022-12-18T09:09:39;102303.12;;;-0.21;76.21
58757;BME280;44527;47.460;19.016;2022-12-18T09:12:41;102302.13;;;-0.32;76.71
58757;BME280;44527;47.460;19.016;2022-12-18T09:15:45;102304.34;;;-0.66;78.20
58757;BME280;44527;47.460;19.016;2022-12-18T09:18:48;102302.47;;;0.02;75.65
58757;BME280;44527;47.460;19.016;2022-12-18T09:21:50;102317.28;;;0.24;74.34
58757;BME280;44527;47.460;19.016;2022-12-18T09:24:53;102300.03;;;0.20;75.29
58757;BME280;44527;47.460;19.016;2022-12-18T09:27:55;102294.66;;;-0.05;76.97
58757;BME280;44527;47.460;19.016;2022-12-18T09:30:58;102291.44;;;0.24;74.60
58757;BME280;44527;47.460;19.016;2022-12-18T09:34:00;102294.09;;;0.29;74.16
58757;BME280;44527;47.460;19.016;2022-12-18T09:37:03;102295.03;;;0.41;72.87
58757;BME280;44527;47.460;19.016;2022-12-18T09:40:05;102294.22;;;0.49;72.99
58757;BME280;44527;47.460;19.016;2022-12-18T09:43:16;102294.44;;;0.81;71.12
58757;BME280;44527;47.460;19.016;2022-12-18T09:46:26;102295.97;;;0.54;72.64
58757;BME280;44527;47.460;19.016;2022-12-18T09:49:33;102296.03;;;0.62;71.74
58757;BME280;44527;47.460;19.016;2022-12-18T09:52:39;102302.91;;;0.58;72.70
58757;BME280;44527;47.460;19.016;2022-12-18T09:55:45;102303.75;;;0.57;72.68
58757;BME280;44527;47.460;19.016;2022-12-18T09:59:02;102299.75;;;1.14;69.66
58757;BME280;44527;47.460;19.016;2022-12-18T10:09:06;102295.44;;;1.15;69.49
58757;BME280;44527;47.460;19.016;2022-12-18T10:12:25;102302.41;;;1.30;67.58
58757;BME280;44527;47.460;19.016;2022-12-18T10:16:08;102291.91;;;0.96;69.28
58757;BME280;44527;47.460;19.016;2022-12-18T10:28:26;102293.00;;;1.50;67.14
58757;BME280;44527;47.460;19.016;2022-12-18T10:31:31;102276.59;;;1.51;66.99
58757;BME280;44527;47.460;19.016;2022-12-18T10:34:33;102287.87;;;1.69;66.33
58757;BME280;44527;47.460;19.016;2022-12-18T10:37:36;102286.12;;;1.77;65.58
58757;BME280;44527;47.460;19.016;2022-12-18T10:44:20;102274.06;;;1.97;65.98
58757;BME280;44527;47.460;19.016;2022-12-18T10:47:22;102281.84;;;2.19;64.02
58757;BME280;44527;47.460;19.016;2022-12-18T10:50:31;102286.16;;;2.11;65.09
58757;BME280;44527;47.460;19.016;2022-12-18T10:53:57;102281.84;;;2.06;65.08
58757;BME280;44527;47.460;19.016;2022-12-18T11:00:30;102279.25;;;2.08;66.46
58757;BME280;44527;47.460;19.016;2022-12-18T11:03:39;102278.38;;;2.32;64.43
58757;BME280;44527;47.460;19.016;2022-12-18T11:07:10;102281.84;;;2.10;66.27
58757;BME280;44527;47.460;19.016;2022-12-18T11:10:17;102277.53;;;2.25;65.91
58757;BME280;44527;47.460;19.016;2022-12-18T11:13:22;102273.19;;;2.52;64.95
58757;BME280;44527;47.460;19.016;2022-12-18T11:16:26;102270.59;;;2.35;64.61
58757;BME280;44527;47.460;19.016;2022-12-18T11:19:37;102272.34;;;2.15;64.91
58757;BME280;44527;47.460;19.016;2022-12-18T11:22:42;102271.47;;;2.17;64.93
58757;BME280;44527;47.460;19.016;2022-12-18T11:25:52;102265.41;;;2.55;63.50
58757;BME280;44527;47.460;19.016;2022-12-18T11:29:10;102267.16;;;2.42;64.31
58757;BME280;44527;47.460;19.016;2022-12-18T11:32:38;102274.00;;;2.57;63.80
58757;BME280;44527;47.460;19.016;2022-12-18T11:35:58;102275.75;;;2.57;62.59
58757;BME280;44527;47.460;19.016;2022-12-18T11:39:15;102264.56;;;2.35;63.57
58757;BME280;44527;47.460;19.016;2022-12-18T11:42:38;102274.03;;;2.48;63.39
58757;BME280;44527;47.460;19.016;2022-12-18T11:45:49;102267.09;;;2.64;62.19
58757;BME280;44527;47.460;19.016;2022-12-18T11:49:14;102261.94;;;2.58;61.76
58757;BME280;44527;47.460;19.016;2022-12-18T11:52:46;102261.94;;;2.58;62.28
58757;BME280;44527;47.460;19.016;2022-12-18T11:59:12;102248.13;;;2.39;62.22
58757;BME280;44527;47.460;19.016;2022-12-18T12:09:00;102242.00;;;2.75;61.55
58757;BME280;44527;47.460;19.016;2022-12-18T12:19:43;102248.81;;;2.99;58.99
58757;BME280;44527;47.460;19.016;2022-12-18T12:22:53;102241.06;;;2.94;60.07
58757;BME280;44527;47.460;19.016;2022-12-18T12:26:00;102234.00;;;3.21;59.73
58757;BME280;44527;47.460;19.016;2022-12-18T12:38:58;102242.72;;;3.14;61.68
58757;BME280;44527;47.460;19.016;2022-12-18T12:42:05;102243.59;;;3.08;61.29
58757;BME280;44527;47.460;19.016;2022-12-18T12:45:37;102236.72;;;2.99;62.03
58757;BME280;44527;47.460;19.016;2022-12-18T12:48:51;102247.91;;;3.14;61.11
58757;BME280;44527;47.460;19.016;2022-12-18T12:52:04;102259.25;;;2.87;62.27
58757;BME280;44527;47.460;19.016;2022-12-18T12:55:16;102265.28;;;2.95;62.18
58757;BME280;44527;47.460;19.016;2022-12-18T13:01:50;102279.97;;;2.99;63.07
58757;BME280;44527;47.460;19.016;2022-12-18T13:08:06;102273.97;;;2.77;63.62
58757;BME280;44527;47.460;19.016;2022-12-18T13:11:34;102278.31;;;2.66;64.46
58757;BME280;44527;47.460;19.016;2022-12-18T13:18:51;102285.22;;;2.76;64.26
58757;BME280;44527;47.460;19.016;2022-12-18T13:21:55;102294.72;;;2.74;64.56
58757;BME280;44527;47.460;19.016;2022-12-18T13:24:59;102283.50;;;2.73;64.34
58757;BME280;44527;47.460;19.016;2022-12-18T13:28:15;102289.56;;;2.71;63.72
58757;BME280;44527;47.460;19.016;2022-12-18T13:34:44;102293.91;;;2.35;65.78
58757;BME280;44527;47.460;19.016;2022-12-18T13:37:54;102293.94;;;2.40;64.87
58757;BME280;44527;47.460;19.016;2022-12-18T13:40:59;102297.38;;;2.34;65.41
58757;BME280;44527;47.460;19.016;2022-12-18T13:44:20;102305.16;;;2.34;65.46
58757;BME280;44527;47.460;19.016;2022-12-18T13:47:32;102299.97;;;2.26;65.05
58757;BME280;44527;47.460;19.016;2022-12-18T13:50:35;102299.12;;;2.24;66.11
58757;BME280;44527;47.460;19.016;2022-12-18T13:53:43;102307.75;;;2.37;64.85
58757;BME280;44527;47.460;19.016;2022-12-18T13:56:47;102308.63;;;2.27;65.30
58757;BME280;44527;47.460;19.016;2022-12-18T13:59:51;102303.44;;;2.28;64.94
58757;BME280;44527;47.460;19.016;2022-12-18T14:02:54;102314.66;;;2.27;65.33
58757;BME280;44527;47.460;19.016;2022-12-18T14:06:04;102314.66;;;2.17;65.04
58757;BME280;44527;47.460;19.016;2022-12-18T14:09:13;102318.09;;;2.03;65.93
58757;BME280;44527;47.460;19.016;2022-12-18T14:12:25;102321.56;;;2.05;65.21
58757;BME280;44527;47.460;19.016;2022-12-18T14:15:47;102313.78;;;1.96;65.33
58757;BME280;44527;47.460;19.016;2022-12-18T14:18:56;102316.38;;;1.95;65.36
58757;BME280;44527;47.460;19.016;2022-12-18T14:22:20;102318.09;;;1.82;66.24
58757;BME280;44527;47.460;19.016;2022-12-18T14:25:25;102318.06;;;1.79;66.61
58757;BME280;44527;47.460;19.016;2022-12-18T14:28:28;102315.47;;;1.74;66.77
58757;BME280;44527;47.460;19.016;2022-12-18T14:31:31;102326.66;;;1.56;67.78
58757;BME280;44527;47.460;19.016;2022-12-18T14:34:33;102330.94;;;1.51;69.17
58757;BME280;44527;47.460;19.016;2022-12-18T14:37:39;102330.03;;;1.40;69.16
58757;BME280;44527;47.460;19.016;2022-12-18T14:40:42;102330.00;;;1.31;70.11
58757;BME280;44527;47.460;19.016;2022-12-18T14:43:47;102332.56;;;1.23;70.64
58757;BME280;44527;47.460;19.016;2022-12-18T14:46:50;102338.56;;;1.14;71.26
58757;BME280;44527;47.460;19.016;2022-12-18T14:49:54;102341.94;;;1.03;72.14
58757;BME280;44527;47.460;19.016;2022-12-18T14:52:56;102345.28;;;0.88;73.52
58757;BME280;44527;47.460;19.016;2022-12-18T14:55:58;102349.59;;;0.84;73.54
58757;BME280;44527;47.460;19.016;2022-12-18T14:59:14;102356.41;;;0.76;73.90
58757;BME280;44527;47.460;19.016;2022-12-18T15:02:27;102365.84;;;0.65;75.17
58757;BME280;44527;47.460;19.016;2022-12-18T15:05:31;102359.75;;;0.55;75.48
58757;BME280;44527;47.460;19.016;2022-12-18T15:08:37;102362.31;;;0.55;74.72
58757;BME280;44527;47.460;19.016;2022-12-18T15:14:41;102379.34;;;0.32;76.33
58757;BME280;44527;47.460;19.016;2022-12-18T15:17:44;102375.00;;;0.28;76.41
58757;BME280;44527;47.460;19.016;2022-12-18T15:23:51;102384.38;;;0.18;76.74
58757;BME280;44527;47.460;19.016;2022-12-18T15:26:54;102385.16;;;0.11;77.40
58757;BME280;44527;47.460;19.016;2022-12-18T15:30:25;102389.47;;;0.10;77.28
58757;BME280;44527;47.460;19.016;2022-12-18T15:36:44;102407.28;;;-0.14;77.44
58757;BME280;44527;47.460;19.016;2022-12-18T15:39:47;102412.28;;;-0.28;78.83
58757;BME280;44527;47.460;19.016;2022-12-18T15:42:53;102408.91;;;-0.24;79.17
58757;BME280;44527;47.460;19.016;2022-12-18T15:46:22;102420.06;;;-0.27;79.03
58757;BME280;44527;47.460;19.016;2022-12-18T15:49:25;102416.56;;;-0.30;79.75
58757;BME280;44527;47.460;19.016;2022-12-18T15:52:27;102421.62;;;-0.39;80.29
58757;BME280;44527;47.460;19.016;2022-12-18T15:55:30;102424.03;;;-0.50;80.15
58757;BME280;44527;47.460;19.016;2022-12-18T15:58:51;102430.06;;;-0.50;80.57
58757;BME280;44527;47.460;19.016;2022-12-18T16:01:53;102436.09;;;-0.51;81.32
58757;BME280;44527;47.460;19.016;2022-12-18T16:04:56;102432.56;;;-0.57;81.87
58757;BME280;44527;47.460;19.016;2022-12-18T16:07:58;102443.66;;;-0.63;81.81
58757;BME280;44527;47.460;19.016;2022-12-18T16:11:01;102440.13;;;-0.68;82.02
58757;BME280;44527;47.460;19.016;2022-12-18T16:14:05;102445.25;;;-0.71;82.11
58757;BME280;44527;47.460;19.016;2022-12-18T16:17:10;102443.47;;;-0.75;81.90
58757;BME280;44527;47.460;19.016;2022-12-18T16:20:15;102441.72;;;-0.79;82.59
58757;BME280;44527;47.460;19.016;2022-12-18T16:23:18;102443.34;;;-0.84;83.05
58757;BME280;44527;47.460;19.016;2022-12-18T16:26:20;102456.09;;;-0.94;83.86
58757;BME280;44527;47.460;19.016;2022-12-18T16:29:22;102453.66;;;-0.84;82.75
58757;BME280;44527;47.460;19.016;2022-12-18T16:32:28;102455.28;;;-0.91;83.41
58757;BME280;44527;47.460;19.016;2022-12-18T16:35:31;102458.78;;;-0.86;82.99
58757;BME280;44527;47.460;19.016;2022-12-18T16:38:34;102470.00;;;-0.85;83.28
58757;BME280;44527;47.460;19.016;2022-12-18T16:41:37;102463.03;;;-0.89;83.31
58757;BME280;44527;47.460;19.016;2022-12-18T16:44:39;102459.53;;;-0.95;83.56
58757;BME280;44527;47.460;19.016;2022-12-18T16:47:42;102472.41;;;-0.95;83.62
58757;BME280;44527;47.460;19.016;2022-12-18T16:50:44;102479.88;;;-1.11;84.13
58757;BME280;44527;47.460;19.016;2022-12-18T16:53:46;102476.53;;;-1.06;84.16
58757;BME280;44527;47.460;19.016;2022-12-18T16:56:50;102482.13;;;-1.31;84.18
58757;BME280;44527;47.460;19.016;2022-12-18T16:59:52;102486.28;;;-1.40;85.14
58757;BME280;44527;47.460;19.016;2022-12-18T17:02:54;102484.66;;;-1.33;85.45
58757;BME280;44527;47.460;19.016;2022-12-18T17:06:03;102491.00;;;-1.63;87.21
58757;BME280;44527;47.460;19.016;2022-12-18T17:09:10;102474.84;;;-1.55;87.50
58757;BME280;44527;47.460;19.016;2022-12-18T17:12:13;102474.09;;;-1.48;87.40
58757;BME280;44527;47.460;19.016;2022-12-18T17:15:15;102471.34;;;-1.57;86.64
58757;BME280;44527;47.460;19.016;2022-12-18T17:18:18;102463.38;;;-2.15;89.61
58757;BME280;44527;47.460;19.016;2022-12-18T17:21:20;102465.47;;;-1.97;89.25
58757;BME280;44527;47.460;19.016;2022-12-18T17:24:23;102459.69;;;-1.84;88.11
58757;BME280;44527;47.460;19.016;2022-12-18T17:27:25;102456.94;;;-1.93;88.41
58757;BME280;44527;47.460;19.016;2022-12-18T17:30:28;102464.09;;;-1.78;87.91
58757;BME280;44527;47.460;19.016;2022-12-18T17:33:31;102472.78;;;-1.73;86.93
58757;BME280;44527;47.460;19.016;2022-12-18T17:36:33;102471.13;;;-1.71;87.43